Time;durP1;ratioP1;P1;durP2;ratioP2;P2;SDS_P1;SDS_P2;PMS_P1;PMS_P2;Temp;Humidity;BMP_temperature;BMP_pressure;BME280_temperature;BME280_humidity;BME280_pressure;Samples;Min_cycle;Max_cycle;Signal;HPM_P1;HPM_P2
2022/06/15 11:38:56;;;;;;;7.15;1.17;;;;;;;;;;4865853;29;20044;-80
2022/06/15 11:41:25;;;;;;;4.65;1.33;;;;;;;;;;4861371;29;20487;-81
2022/06/15 11:43:52;;;;;;;4.45;1.70;;;;;;;;;;4861562;29;20412;-82
2022/06/15 11:46:50;;;;;;;2.75;1.23;;;;;;;;;;4861656;29;20021;-83
2022/06/15 11:49:31;;;;;;;4.80;1.17;;;;;;;;;;4836998;29;20046;-83
2022/06/15 11:52:16;;;;;;;4.45;1.10;;;;;;;;;;4872684;29;20531;-83
2022/06/15 11:54:51;;;;;;;5.40;1.30;;;;;;;;;;4844332;29;20053;-83
2022/06/15 11:57:32;;;;;;;4.15;1.30;;;;;;;;;;4857617;29;20034;-85
2022/06/15 11:59:58;;;;;;;5.20;1.00;;;;;;;;;;4841317;29;20035;-86
2022/06/15 12:02:31;;;;;;;4.93;1.40;;;;;;;;;;4836695;29;20061;-86
2022/06/15 12:05:00;;;;;;;7.25;1.30;;;;;;;;;;4837347;29;20034;-86
2022/06/15 12:07:33;;;;;;;2.15;1.10;;;;;;;;;;4837234;29;20042;-82
2022/06/15 12:10:07;;;;;;;4.05;1.20;;;;;;;;;;4837092;29;20039;-86
2022/06/15 12:12:52;;;;;;;4.28;1.10;;;;;;;;;;4836821;29;20034;-86
2022/06/15 12:15:21;;;;;;;3.05;0.90;;;;;;;;;;4808322;29;20093;-84
2022/06/15 12:17:50;;;;;;;3.63;1.00;;;;;;;;;;4837204;29;20039;-87
2022/06/15 12:20:24;;;;;;;2.17;1.00;;;;;;;;;;4837432;29;20030;-87
2022/06/15 12:22:50;;;;;;;4.80;1.23;;;;;;;;;;4837324;29;20035;-90
2022/06/15 12:25:16;;;;;;;3.28;1.40;;;;;;;;;;4807616;29;20537;-82
2022/06/15 12:28:02;;;;;;;4.03;1.60;;;;;;;;;;4836761;29;20031;-83
2022/06/15 12:30:35;;;;;;;4.53;1.25;;;;;;;;;;4801929;29;20045;-84
2022/06/15 12:33:19;;;;;;;5.38;1.10;;;;;;;;;;4836055;29;20024;-86
2022/06/15 12:35:55;;;;;;;3.58;0.88;;;;;;;;;;4870921;29;20121;-85
2022/06/15 12:38:22;;;;;;;1.80;0.77;;;;;;;;;;4873455;29;20030;-85
2022/06/15 12:40:49;;;;;;;2.25;0.70;;;;;;;;;;4873795;29;20071;-84
2022/06/15 12:43:24;;;;;;;2.00;0.90;;;;;;;;;;4872876;29;20065;-83
2022/06/15 12:45:53;;;;;;;4.18;0.90;;;;;;;;;;4873370;29;20121;-90
2022/06/15 12:48:22;;;;;;;2.83;0.90;;;;;;;;;;4873484;29;20037;-87
2022/06/15 12:50:57;;;;;;;4.15;0.93;;;;;;;;;;4844174;29;20040;-89
2022/06/15 12:53:23;;;;;;;4.38;1.00;;;;;;;;;;4873173;29;20125;-86
2022/06/15 12:56:02;;;;;;;4.30;1.10;;;;;;;;;;4873413;29;20029;-86
2022/06/15 12:58:46;;;;;;;5.50;0.93;;;;;;;;;;4873293;29;20036;-82
2022/06/15 13:01:24;;;;;;;2.65;1.10;;;;;;;;;;4873035;29;20022;-84
2022/06/15 13:03:59;;;;;;;3.83;1.00;;;;;;;;;;4842955;29;20038;-84
2022/06/15 13:06:27;;;;;;;2.83;1.08;;;;;;;;;;4872801;29;20116;-85
2022/06/15 13:09:02;;;;;;;7.70;1.23;;;;;;;;;;4843004;29;20079;-84
2022/06/15 13:11:29;;;;;;;3.28;1.15;;;;;;;;;;4872448;29;20036;-75
2022/06/15 13:13:56;;;;;;;4.80;1.48;;;;;;;;;;4842885;29;20486;-76
2022/06/15 13:16:42;;;;;;;2.15;1.08;;;;;;;;;;4872290;29;20113;-84
2022/06/15 13:19:10;;;;;;;3.83;0.90;;;;;;;;;;4872336;29;20030;-78
2022/06/15 13:22:09;;;;;;;3.22;0.93;;;;;;;;;;4872525;29;20452;-78
2022/06/15 13:24:56;;;;;;;4.03;1.15;;;;;;;;;;4831209;29;20046;-78
2022/06/15 13:27:40;;;;;;;2.15;0.93;;;;;;;;;;4871888;29;20030;-78
2022/06/15 13:30:10;;;;;;;3.33;1.00;;;;;;;;;;4872166;29;20038;-80
2022/06/15 13:32:50;;;;;;;2.38;0.88;;;;;;;;;;4872331;29;20365;-78
2022/06/15 13:35:21;;;;;;;2.70;0.77;;;;;;;;;;4871883;29;20061;-80
2022/06/15 13:37:57;;;;;;;2.67;0.98;;;;;;;;;;4872039;29;20053;-78
2022/06/15 13:40:24;;;;;;;2.55;0.73;;;;;;;;;;4872139;29;20485;-81
2022/06/15 13:43:01;;;;;;;2.88;1.02;;;;;;;;;;4871889;29;20038;-79
2022/06/15 13:45:29;;;;;;;2.50;0.90;;;;;;;;;;4871864;29;20468;-77
2022/06/15 13:47:56;;;;;;;2.20;1.00;;;;;;;;;;4872136;29;20033;-78
2022/06/15 13:50:26;;;;;;;3.13;0.80;;;;;;;;;;4872040;29;20037;-80
2022/06/15 13:52:54;;;;;;;5.50;1.10;;;;;;;;;;4871520;29;20034;-78
2022/06/15 13:55:23;;;;;;;3.33;1.00;;;;;;;;;;4845015;29;20026;-79
2022/06/15 13:57:58;;;;;;;2.22;0.90;;;;;;;;;;4823007;29;20061;-81
2022/06/15 14:00:34;;;;;;;1.98;0.90;;;;;;;;;;4835404;29;20037;-77
2022/06/15 14:03:09;;;;;;;1.55;0.95;;;;;;;;;;4871549;29;20038;-79
2022/06/15 14:05:41;;;;;;;4.55;0.80;;;;;;;;;;4871864;29;20484;-77
2022/06/15 14:08:07;;;;;;;4.53;1.42;;;;;;;;;;4842313;29;20484;-77
2022/06/15 14:10:33;;;;;;;4.07;1.08;;;;;;;;;;4871772;29;20034;-76
2022/06/15 14:13:15;;;;;;;3.40;0.90;;;;;;;;;;4871921;29;20129;-80
2022/06/15 14:15:53;;;;;;;3.00;1.00;;;;;;;;;;4872024;29;20502;-81
2022/06/15 14:18:30;;;;;;;3.10;1.00;;;;;;;;;;4842136;29;20034;-79
2022/06/15 14:21:24;;;;;;;2.50;0.90;;;;;;;;;;4875064;29;20040;-80
2022/06/15 14:23:51;;;;;;;2.53;0.80;;;;;;;;;;4826742;29;20121;-78
2022/06/15 14:26:20;;;;;;;2.75;0.80;;;;;;;;;;4827409;29;20481;-78
2022/06/15 14:29:05;;;;;;;4.80;1.10;;;;;;;;;;4856463;29;20083;-77
2022/06/15 14:31:33;;;;;;;3.13;1.08;;;;;;;;;;4856830;29;20031;-77
2022/06/15 14:34:05;;;;;;;2.72;1.10;;;;;;;;;;4856664;29;20026;-79
2022/06/15 14:36:32;;;;;;;4.30;1.27;;;;;;;;;;4856613;29;20390;-79
2022/06/15 14:39:01;;;;;;;6.63;1.17;;;;;;;;;;4856177;29;20508;-79
2022/06/15 14:41:32;;;;;;;3.83;1.20;;;;;;;;;;4856527;29;20030;-78
2022/06/15 14:43:59;;;;;;;4.32;0.95;;;;;;;;;;4826958;29;20561;-79
2022/06/15 14:46:48;;;;;;;3.78;1.13;;;;;;;;;;4826955;29;20501;-78
2022/06/15 14:49:24;;;;;;;3.15;1.00;;;;;;;;;;4839142;29;20548;-79
2022/06/15 14:51:50;;;;;;;2.22;1.05;;;;;;;;;;4845584;29;20074;-87
2022/06/15 14:54:19;;;;;;;4.82;1.35;;;;;;;;;;4874898;29;20452;-80
2022/06/15 14:56:48;;;;;;;4.60;1.35;;;;;;;;;;4875026;29;20026;-76
2022/06/15 14:59:17;;;;;;;4.40;1.08;;;;;;;;;;4874756;29;20042;-79
2022/06/15 15:01:58;;;;;;;2.15;1.08;;;;;;;;;;4874585;29;20090;-77
2022/06/15 15:04:28;;;;;;;3.35;1.20;;;;;;;;;;4845075;29;20045;-77
2022/06/15 15:06:56;;;;;;;3.10;1.20;;;;;;;;;;4874661;29;20033;-78
2022/06/15 15:09:23;;;;;;;3.17;1.20;;;;;;;;;;4874323;29;20026;-77
2022/06/15 15:11:49;;;;;;;3.33;0.90;;;;;;;;;;4874589;29;20117;-77
2022/06/15 15:14:19;;;;;;;1.80;1.00;;;;;;;;;;4874217;29;20038;-79
2022/06/15 15:16:45;;;;;;;4.40;1.30;;;;;;;;;;4874436;29;20022;-77
2022/06/15 15:19:13;;;;;;;4.55;1.35;;;;;;;;;;4844666;29;20030;-77
2022/06/15 15:21:44;;;;;;;5.10;1.67;;;;;;;;;;4874082;29;20399;-77
2022/06/15 15:24:13;;;;;;;4.50;1.73;;;;;;;;;;4855584;29;20125;-76
2022/06/15 15:26:41;;;;;;;4.03;1.65;;;;;;;;;;4826047;29;20037;-78
2022/06/15 15:34:08;;;;;;;4.50;1.60;;;;;;;;;;4826410;29;20049;-77
2022/06/15 15:35:16;;;;;;;4.03;1.42;;;;;;;;;;4826155;29;20126;-79
2022/06/15 15:37:45;;;;;;;11.65;1.90;;;;;;;;;;4855228;29;20058;-77
2022/06/15 15:40:16;;;;;;;4.88;1.50;;;;;;;;;;4826221;29;20660;-76
2022/06/15 15:42:43;;;;;;;3.78;1.60;;;;;;;;;;4855586;29;20404;-78
2022/06/15 15:45:10;;;;;;;8.10;1.92;;;;;;;;;;4855733;29;20453;-76
2022/06/15 15:47:36;;;;;;;5.63;1.77;;;;;;;;;;4855099;29;20034;-78
2022/06/15 15:50:02;;;;;;;8.32;1.90;;;;;;;;;;4855536;29;20026;-87
2022/06/15 15:52:29;;;;;;;11.68;2.00;;;;;;;;;;4855543;29;20618;-83
2022/06/15 15:54:55;;;;;;;3.30;1.60;;;;;;;;;;4855948;29;20031;-78
2022/06/15 15:57:22;;;;;;;3.28;1.50;;;;;;;;;;4855773;29;20030;-87
2022/06/15 15:59:49;;;;;;;2.72;1.42;;;;;;;;;;4855693;29;20026;-79
2022/06/15 16:02:18;;;;;;;3.08;1.70;;;;;;;;;;4855461;29;20126;-86
2022/06/15 16:04:45;;;;;;;3.83;1.95;;;;;;;;;;4825901;29;20044;-87
2022/06/15 16:07:16;;;;;;;3.90;1.83;;;;;;;;;;4855703;29;20041;-78
2022/06/15 16:09:43;;;;;;;3.05;1.70;;;;;;;;;;4855674;29;20395;-77
2022/06/15 16:12:10;;;;;;;4.25;1.60;;;;;;;;;;4855286;29;20034;-86
2022/06/15 16:14:36;;;;;;;2.83;1.60;;;;;;;;;;4855680;29;20069;-78
2022/06/15 16:17:03;;;;;;;5.03;1.52;;;;;;;;;;4855557;29;20040;-86
2022/06/15 16:19:35;;;;;;;4.13;1.80;;;;;;;;;;4855525;29;20038;-80
2022/06/15 16:22:02;;;;;;;3.55;1.85;;;;;;;;;;4855745;29;20038;-78
2022/06/15 16:24:31;;;;;;;5.18;1.88;;;;;;;;;;4825966;29;20109;-77
2022/06/15 16:26:57;;;;;;;3.55;1.80;;;;;;;;;;4855286;29;20026;-78
2022/06/15 16:29:26;;;;;;;3.00;1.80;;;;;;;;;;4825896;29;20034;-86
2022/06/15 16:31:53;;;;;;;4.38;1.75;;;;;;;;;;4825889;29;20095;-86
2022/06/15 16:34:19;;;;;;;3.92;2.42;;;;;;;;;;4855007;29;20053;-79
2022/06/15 16:36:45;;;;;;;3.47;2.00;;;;;;;;;;4854930;29;20497;-78
2022/06/15 16:39:11;;;;;;;5.25;2.28;;;;;;;;;;4854848;29;20503;-86
2022/06/15 16:41:37;;;;;;;3.08;1.90;;;;;;;;;;4825070;29;20058;-86
2022/06/15 16:44:03;;;;;;;4.45;1.90;;;;;;;;;;4854946;29;20039;-78
2022/06/15 16:46:30;;;;;;;5.05;2.17;;;;;;;;;;4854834;29;20096;-77
2022/06/15 16:48:58;;;;;;;3.92;1.92;;;;;;;;;;4854965;29;20031;-78
2022/06/15 16:51:25;;;;;;;3.67;1.80;;;;;;;;;;4855122;29;20026;-87
2022/06/15 16:53:52;;;;;;;5.43;2.03;;;;;;;;;;4854825;29;20469;-86
2022/06/15 16:56:24;;;;;;;6.28;1.95;;;;;;;;;;4854684;29;20411;-81
2022/06/15 16:58:50;;;;;;;3.10;1.90;;;;;;;;;;4854412;29;20099;-74
2022/06/15 17:01:16;;;;;;;2.80;1.65;;;;;;;;;;4825109;29;20042;-82
2022/06/15 17:03:42;;;;;;;3.63;1.60;;;;;;;;;;4854331;29;20034;-81
2022/06/15 17:06:08;;;;;;;3.55;1.90;;;;;;;;;;4854316;29;20366;-81
2022/06/15 17:08:39;;;;;;;8.65;2.03;;;;;;;;;;4854171;29;20485;-85
2022/06/15 17:11:06;;;;;;;7.93;1.90;;;;;;;;;;4854480;29;20050;-83
2022/06/15 17:13:33;;;;;;;4.70;1.88;;;;;;;;;;4854282;29;20038;-80
2022/06/15 17:15:59;;;;;;;5.95;1.80;;;;;;;;;;4825061;29;20373;-80
2022/06/15 17:18:26;;;;;;;3.65;1.90;;;;;;;;;;4854224;29;20041;-74
2022/06/15 17:20:52;;;;;;;3.75;1.80;;;;;;;;;;4824377;29;20053;-78
2022/06/15 17:23:19;;;;;;;3.83;1.77;;;;;;;;;;4823251;29;20035;-78
2022/06/15 17:25:47;;;;;;;4.57;1.77;;;;;;;;;;4824649;29;20031;-80
2022/06/15 17:28:13;;;;;;;5.25;2.47;;;;;;;;;;4823613;29;20066;-79
2022/06/15 17:30:40;;;;;;;7.28;3.92;;;;;;;;;;4823524;29;20034;-80
2022/06/15 17:33:06;;;;;;;4.75;2.78;;;;;;;;;;4824001;29;20396;-81
2022/06/15 17:35:34;;;;;;;4.55;2.08;;;;;;;;;;4823402;29;20090;-76
2022/06/15 17:38:00;;;;;;;4.50;1.90;;;;;;;;;;4823584;29;20034;-79
2022/06/15 17:40:26;;;;;;;3.13;1.70;;;;;;;;;;4823376;29;20451;-78
2022/06/15 17:42:52;;;;;;;4.15;1.60;;;;;;;;;;4824523;29;20069;-76
2022/06/15 17:45:18;;;;;;;2.78;1.58;;;;;;;;;;4823745;29;20034;-79
2022/06/15 17:47:45;;;;;;;16.17;6.47;;;;;;;;;;4825637;29;20034;-77
2022/06/15 17:50:11;;;;;;;42.53;19.13;;;;;;;;;;4823692;29;20489;-79
2022/06/15 17:52:37;;;;;;;91.82;32.22;;;;;;;;;;4823123;29;20030;-76
2022/06/15 17:55:04;;;;;;;55.85;13.18;;;;;;;;;;4825019;29;20100;-79
2022/06/15 17:57:30;;;;;;;4.85;2.65;;;;;;;;;;4826748;29;20408;-77
2022/06/15 17:59:56;;;;;;;6.07;2.80;;;;;;;;;;4856164;29;20026;-77
2022/06/15 18:02:23;;;;;;;5.75;2.15;;;;;;;;;;4826418;29;20034;-78
2022/06/15 18:04:50;;;;;;;15.05;3.05;;;;;;;;;;4826549;29;20039;-76
2022/06/15 18:07:16;;;;;;;4.50;2.30;;;;;;;;;;4826631;29;20038;-81
2022/06/15 18:09:42;;;;;;;5.60;2.00;;;;;;;;;;4826972;29;20039;-82
2022/06/15 18:12:09;;;;;;;4.75;1.70;;;;;;;;;;4826569;29;20107;-80
2022/06/15 18:14:37;;;;;;;3.45;1.80;;;;;;;;;;4827036;29;20030;-87
2022/06/15 18:17:05;;;;;;;3.15;1.63;;;;;;;;;;4839888;29;20040;-77
2022/06/15 18:19:36;;;;;;;3.58;1.58;;;;;;;;;;4876094;29;20034;-81
2022/06/15 18:22:03;;;;;;;3.90;2.00;;;;;;;;;;4876193;29;20044;-86
2022/06/15 18:24:30;;;;;;;4.47;2.03;;;;;;;;;;4876014;29;20033;-81
2022/06/15 18:26:57;;;;;;;3.20;1.85;;;;;;;;;;4876165;29;20086;-81
2022/06/15 18:29:23;;;;;;;4.45;1.98;;;;;;;;;;4876029;29;20117;-81
2022/06/15 18:32:01;;;;;;;4.18;1.80;;;;;;;;;;4875318;29;20053;-79
2022/06/15 18:34:28;;;;;;;3.97;1.77;;;;;;;;;;4877517;29;20109;-81
2022/06/15 18:36:54;;;;;;;3.13;1.90;;;;;;;;;;4875428;29;20471;-87
2022/06/15 18:39:22;;;;;;;3.13;1.80;;;;;;;;;;4875034;29;20032;-78
2022/06/15 18:41:51;;;;;;;3.67;1.80;;;;;;;;;;4875581;29;20476;-80
2022/06/15 18:49:49;;;;;;;9.18;2.50;;;;;;;;;;4846503;29;20049;-90
2022/06/15 18:52:15;;;;;;;5.32;2.28;;;;;;;;;;4875098;29;20054;-87
2022/06/15 18:54:42;;;;;;;6.95;2.60;;;;;;;;;;4865702;29;20031;-83
2022/06/15 18:57:09;;;;;;;6.35;2.22;;;;;;;;;;4856516;29;20129;-80
2022/06/15 18:59:36;;;;;;;7.13;2.70;;;;;;;;;;4857042;29;20038;-86
2022/06/15 19:02:02;;;;;;;8.20;2.78;;;;;;;;;;4856839;29;20058;-84
2022/06/15 19:04:28;;;;;;;9.05;2.63;;;;;;;;;;4856672;29;20041;-88
2022/06/15 19:06:55;;;;;;;6.80;3.05;;;;;;;;;;4856635;29;20027;-80
2022/06/15 19:09:22;;;;;;;6.68;3.40;;;;;;;;;;4856995;29;20374;-82
2022/06/15 19:11:48;;;;;;;5.82;3.20;;;;;;;;;;4866926;29;20026;-85
2022/06/15 19:14:14;;;;;;;8.20;2.90;;;;;;;;;;4857308;29;20034;-86
2022/06/15 19:16:41;;;;;;;7.38;3.13;;;;;;;;;;4857022;29;20038;-83
2022/06/15 19:19:07;;;;;;;6.97;3.00;;;;;;;;;;4856512;29;20087;-83
2022/06/15 19:21:33;;;;;;;5.10;3.00;;;;;;;;;;4859100;29;20034;-81
2022/06/15 19:24:02;;;;;;;8.50;2.63;;;;;;;;;;4855443;29;20038;-83
2022/06/15 19:26:28;;;;;;;5.97;2.70;;;;;;;;;;4856272;29;20035;-85
2022/06/15 19:28:56;;;;;;;5.43;2.90;;;;;;;;;;4855977;29;20038;-84
2022/06/15 19:31:24;;;;;;;6.80;3.08;;;;;;;;;;4856131;29;20026;-81
2022/06/15 19:33:51;;;;;;;7.55;3.78;;;;;;;;;;4855909;29;20511;-82
2022/06/15 19:36:18;;;;;;;10.80;6.25;;;;;;;;;;4856001;29;20057;-81
2022/06/15 19:38:44;;;;;;;11.27;6.68;;;;;;;;;;4855928;29;20035;-85
2022/06/15 19:41:10;;;;;;;10.50;6.20;;;;;;;;;;4826768;29;20030;-84
2022/06/15 19:43:40;;;;;;;9.75;5.63;;;;;;;;;;4826501;29;20046;-79
2022/06/15 19:46:06;;;;;;;6.57;4.40;;;;;;;;;;4855768;29;20030;-79
2022/06/15 19:48:35;;;;;;;6.32;4.15;;;;;;;;;;4855976;29;20030;-82
2022/06/15 19:51:01;;;;;;;6.47;4.32;;;;;;;;;;4855933;29;20034;-82
2022/06/15 19:53:27;;;;;;;7.72;4.07;;;;;;;;;;4855696;29;20473;-78
2022/06/15 19:56:03;;;;;;;7.47;4.00;;;;;;;;;;4856243;29;20042;-95
2022/06/15 19:58:29;;;;;;;6.20;4.00;;;;;;;;;;4827053;29;20050;-81
2022/06/15 20:00:55;;;;;;;7.05;4.05;;;;;;;;;;4855837;29;20385;-82
2022/06/15 20:03:21;;;;;;;8.45;4.00;;;;;;;;;;4855671;29;20094;-85
2022/06/15 20:05:48;;;;;;;14.55;4.18;;;;;;;;;;4856697;29;20034;-83
2022/06/15 20:08:14;;;;;;;6.22;3.97;;;;;;;;;;4856266;29;20054;-92
2022/06/15 20:10:41;;;;;;;6.05;3.95;;;;;;;;;;4856048;29;20062;-87
2022/06/15 20:13:10;;;;;;;10.65;4.30;;;;;;;;;;4856199;29;20068;-92
2022/06/15 20:15:37;;;;;;;7.78;3.80;;;;;;;;;;4855545;29;20034;-79
2022/06/15 20:18:05;;;;;;;9.02;4.13;;;;;;;;;;4854940;29;20499;-82
2022/06/15 20:20:33;;;;;;;4.93;3.95;;;;;;;;;;4855500;29;20026;-76
2022/06/15 20:23:02;;;;;;;5.38;4.00;;;;;;;;;;4855678;29;20101;-84
2022/06/15 20:25:29;;;;;;;4.93;3.78;;;;;;;;;;4856636;29;20492;-87
2022/06/15 20:27:57;;;;;;;4.88;3.70;;;;;;;;;;4827030;29;20114;-82
2022/06/15 20:30:24;;;;;;;7.22;3.65;;;;;;;;;;4855945;29;20031;-83
2022/06/15 20:32:50;;;;;;;6.75;3.90;;;;;;;;;;4856091;29;20030;-79
2022/06/15 20:35:16;;;;;;;8.75;4.43;;;;;;;;;;4825529;29;20109;-78
2022/06/15 20:37:43;;;;;;;6.68;4.22;;;;;;;;;;4854718;29;20058;-79
2022/06/15 20:40:10;;;;;;;9.32;4.32;;;;;;;;;;4854985;29;20034;-82
2022/06/15 20:42:37;;;;;;;6.82;4.20;;;;;;;;;;4854418;29;20073;-76
2022/06/15 20:45:04;;;;;;;6.55;4.55;;;;;;;;;;4854290;29;20567;-78
2022/06/15 20:47:31;;;;;;;5.15;4.00;;;;;;;;;;4854280;29;20049;-82
2022/06/15 20:49:58;;;;;;;7.13;4.10;;;;;;;;;;4854403;29;20034;-83
2022/06/15 20:52:25;;;;;;;4.97;3.95;;;;;;;;;;4854140;29;20073;-79
2022/06/15 20:54:51;;;;;;;5.78;4.15;;;;;;;;;;4854148;29;20079;-78
2022/06/15 20:57:20;;;;;;;5.40;4.57;;;;;;;;;;4980543;23;20086;-82
2022/06/15 20:59:47;;;;;;;6.05;4.40;;;;;;;;;;4824751;29;20039;-78
2022/06/15 21:02:15;;;;;;;6.57;4.13;;;;;;;;;;4825079;29;20039;-78
2022/06/15 21:05:06;;;;;;;5.72;4.50;;;;;;;;;;4825014;29;20065;-79
2022/06/15 21:07:34;;;;;;;10.73;4.72;;;;;;;;;;4841555;29;20149;-81
2022/06/15 21:18:16;;;;;;;5.30;4.25;;;;;;;;;;4825185;29;20038;-79
2022/06/15 21:20:42;;;;;;;7.10;4.95;;;;;;;;;;4838663;29;20109;-79
2022/06/15 21:23:08;;;;;;;4.82;4.35;;;;;;;;;;4825037;29;20135;-77
2022/06/15 21:25:35;;;;;;;6.93;4.82;;;;;;;;;;4838889;29;20034;-79
2022/06/15 21:28:03;;;;;;;8.18;4.80;;;;;;;;;;4838827;29;20113;-84
2022/06/15 21:30:29;;;;;;;7.18;4.63;;;;;;;;;;4839080;29;20035;-78
2022/06/15 21:32:57;;;;;;;6.10;5.10;;;;;;;;;;4838615;29;20039;-81
2022/06/15 21:35:24;;;;;;;8.55;5.30;;;;;;;;;;4838662;29;20121;-80
2022/06/15 21:37:50;;;;;;;6.65;4.90;;;;;;;;;;4838257;29;20030;-79
2022/06/15 21:40:18;;;;;;;6.75;4.45;;;;;;;;;;4838627;29;20026;-77
2022/06/15 21:42:45;;;;;;;6.63;4.38;;;;;;;;;;4838270;29;20121;-81
2022/06/15 21:45:13;;;;;;;6.00;4.25;;;;;;;;;;4838509;29;20068;-82
2022/06/15 21:47:41;;;;;;;7.35;4.82;;;;;;;;;;4824984;29;20030;-79
2022/06/15 21:50:09;;;;;;;6.50;4.65;;;;;;;;;;4824524;29;20026;-79
2022/06/15 21:52:36;;;;;;;7.95;4.78;;;;;;;;;;4838368;29;20081;-77
2022/06/15 21:55:02;;;;;;;6.53;4.40;;;;;;;;;;4838431;29;20077;-83
2022/06/15 21:57:28;;;;;;;5.72;4.30;;;;;;;;;;4838194;29;20054;-77
2022/06/15 21:59:55;;;;;;;7.18;4.70;;;;;;;;;;4838267;29;20058;-79
2022/06/15 22:02:21;;;;;;;5.85;4.82;;;;;;;;;;4838059;29;20068;-79
2022/06/15 22:04:48;;;;;;;5.88;4.53;;;;;;;;;;4838229;29;20037;-79
2022/06/15 22:07:14;;;;;;;5.22;4.47;;;;;;;;;;4824454;29;20392;-77
2022/06/15 22:09:41;;;;;;;6.10;4.53;;;;;;;;;;4824548;29;20030;-77
2022/06/15 22:12:08;;;;;;;6.57;4.47;;;;;;;;;;4838130;29;20069;-78
2022/06/15 22:14:34;;;;;;;6.20;4.50;;;;;;;;;;4824618;29;20456;-77
2022/06/15 22:17:01;;;;;;;6.72;4.60;;;;;;;;;;4838524;29;20023;-79
2022/06/15 22:19:29;;;;;;;7.35;4.47;;;;;;;;;;4838026;29;20058;-84
2022/06/15 22:21:57;;;;;;;5.97;4.20;;;;;;;;;;4838172;29;20065;-79
2022/06/15 22:24:23;;;;;;;6.50;4.32;;;;;;;;;;4824089;29;20039;-79
2022/06/15 22:26:49;;;;;;;6.82;4.80;;;;;;;;;;4838488;29;20084;-79
2022/06/15 22:29:19;;;;;;;6.57;4.78;;;;;;;;;;4838003;29;20057;-78
2022/06/15 22:31:46;;;;;;;6.13;4.22;;;;;;;;;;4838156;29;20173;-82
2022/06/15 22:34:13;;;;;;;7.88;4.53;;;;;;;;;;4838016;29;20031;-78
2022/06/15 22:36:39;;;;;;;6.28;4.78;;;;;;;;;;4824298;29;20030;-82
2022/06/15 22:39:05;;;;;;;7.38;5.20;;;;;;;;;;4838244;29;20034;-78
2022/06/15 22:41:31;;;;;;;7.70;5.88;;;;;;;;;;4840618;29;20117;-78
2022/06/15 22:43:58;;;;;;;6.68;5.25;;;;;;;;;;4827239;29;20561;-79
2022/06/15 22:46:24;;;;;;;5.85;4.70;;;;;;;;;;4827511;29;20031;-83
2022/06/15 22:51:36;;;;;;;5.93;4.47;;;;;;;;;;4827266;29;20034;-79
2022/06/15 22:54:02;;;;;;;6.70;4.18;;;;;;;;;;4841085;29;20076;-84
2022/06/15 22:56:29;;;;;;;6.00;4.55;;;;;;;;;;4826812;29;20125;-83
2022/06/15 22:58:56;;;;;;;6.70;4.10;;;;;;;;;;4841467;29;20507;-77
2022/06/15 23:01:22;;;;;;;6.00;4.30;;;;;;;;;;4841048;29;20075;-79
2022/06/15 23:03:48;;;;;;;5.95;4.30;;;;;;;;;;4841119;29;20129;-80
2022/06/15 23:06:15;;;;;;;5.75;4.40;;;;;;;;;;4840746;29;20078;-79
2022/06/15 23:08:41;;;;;;;5.30;4.20;;;;;;;;;;4841222;29;20030;-79
2022/06/15 23:11:08;;;;;;;7.15;4.50;;;;;;;;;;4840929;29;20482;-78
2022/06/15 23:13:35;;;;;;;5.20;4.20;;;;;;;;;;4826906;29;20026;-79
2022/06/15 23:16:06;;;;;;;7.75;4.75;;;;;;;;;;4840877;29;20031;-79
2022/06/15 23:18:33;;;;;;;6.75;4.97;;;;;;;;;;4840871;29;20129;-79
2022/06/15 23:21:03;;;;;;;6.05;4.50;;;;;;;;;;4840976;29;20031;-83
2022/06/15 23:23:29;;;;;;;5.65;4.80;;;;;;;;;;4826447;29;20477;-79
2022/06/15 23:25:55;;;;;;;4.60;4.13;;;;;;;;;;4840803;29;20553;-79
2022/06/15 23:28:22;;;;;;;6.65;4.65;;;;;;;;;;4840605;29;20090;-83
2022/06/15 23:30:48;;;;;;;7.03;4.50;;;;;;;;;;4826550;29;20087;-79
2022/06/15 23:33:14;;;;;;;6.80;4.47;;;;;;;;;;4826394;29;20095;-79
2022/06/15 23:35:40;;;;;;;6.38;4.25;;;;;;;;;;4840570;29;20026;-79
2022/06/15 23:38:06;;;;;;;7.05;4.22;;;;;;;;;;4840319;29;20492;-79
2022/06/15 23:40:33;;;;;;;6.40;3.92;;;;;;;;;;4840573;29;20031;-77
2022/06/15 23:42:59;;;;;;;7.28;4.60;;;;;;;;;;4826263;29;20051;-79
2022/06/15 23:48:10;;;;;;;8.02;4.55;;;;;;;;;;4826774;29;20061;-77
2022/06/15 23:50:41;;;;;;;6.22;4.50;;;;;;;;;;4826307;29;20026;-79
2022/06/15 23:53:08;;;;;;;5.47;4.55;;;;;;;;;;4838995;29;20034;-78
2022/06/15 23:55:34;;;;;;;6.50;4.50;;;;;;;;;;4826030;29;20049;-79
2022/06/15 23:58:01;;;;;;;5.53;4.25;;;;;;;;;;4839731;29;20070;-78
